sensor_id;sensor_type;location;lat;lon;timestamp;temperature;humidity
41592;DHT22;28026;48.562;14.440;2023-01-28T00:02:13;-2.60;99.90
41592;DHT22;28026;48.562;14.440;2023-01-28T00:04:44;-2.70;99.90
41592;DHT22;28026;48.562;14.440;2023-01-28T00:07:15;-2.70;99.90
41592;DHT22;28026;48.562;14.440;2023-01-28T00:09:46;-2.70;99.90
41592;DHT22;28026;48.562;14.440;2023-01-28T00:12:17;-2.60;99.90
41592;DHT22;28026;48.562;14.440;2023-01-28T00:14:48;-2.60;99.90
41592;DHT22;28026;48.562;14.440;2023-01-28T00:17:18;-2.60;99.90
41592;DHT22;28026;48.562;14.440;2023-01-28T00:19:49;-2.60;99.90
41592;DHT22;28026;48.562;14.440;2023-01-28T00:22:20;-2.60;99.90
41592;DHT22;28026;48.562;14.440;2023-01-28T00:24:51;-2.60;99.90
41592;DHT22;28026;48.562;14.440;2023-01-28T00:27:22;-2.60;99.90
41592;DHT22;28026;48.562;14.440;2023-01-28T00:29:53;-2.60;99.90
41592;DHT22;28026;48.562;14.440;2023-01-28T00:32:24;-2.70;99.90
41592;DHT22;28026;48.562;14.440;2023-01-28T00:34:55;-2.60;99.90
41592;DHT22;28026;48.562;14.440;2023-01-28T00:37:26;-2.60;99.90
41592;DHT22;28026;48.562;14.440;2023-01-28T00:39:57;-2.60;99.90
41592;DHT22;28026;48.562;14.440;2023-01-28T00:42:28;-2.50;99.90
41592;DHT22;28026;48.562;14.440;2023-01-28T00:44:59;-2.50;99.90
41592;DHT22;28026;48.562;14.440;2023-01-28T00:47:29;-2.50;99.90
41592;DHT22;28026;48.562;14.440;2023-01-28T00:50:00;-2.60;99.90
41592;DHT22;28026;48.562;14.440;2023-01-28T00:52:32;-2.50;99.90
41592;DHT22;28026;48.562;14.440;2023-01-28T00:55:03;-2.60;99.90
41592;DHT22;28026;48.562;14.440;2023-01-28T00:57:34;-2.60;99.90
41592;DHT22;28026;48.562;14.440;2023-01-28T01:00:06;-2.70;99.90
41592;DHT22;28026;48.562;14.440;2023-01-28T01:02:38;-2.60;99.90
41592;DHT22;28026;48.562;14.440;2023-01-28T01:05:08;-2.70;99.90
41592;DHT22;28026;48.562;14.440;2023-01-28T01:07:40;-2.60;99.90
41592;DHT22;28026;48.562;14.440;2023-01-28T01:10:14;-2.60;99.90
41592;DHT22;28026;48.562;14.440;2023-01-28T01:12:48;-2.70;99.90
41592;DHT22;28026;48.562;14.440;2023-01-28T01:15:19;-2.70;99.90
41592;DHT22;28026;48.562;14.440;2023-01-28T01:17:51;-2.70;99.90
41592;DHT22;28026;48.562;14.440;2023-01-28T01:20:27;-2.60;99.90
41592;DHT22;28026;48.562;14.440;2023-01-28T01:23:02;-2.60;99.90
41592;DHT22;28026;48.562;14.440;2023-01-28T01:25:33;-2.60;99.90
41592;DHT22;28026;48.562;14.440;2023-01-28T01:28:04;-2.60;99.90
41592;DHT22;28026;48.562;14.440;2023-01-28T01:30:35;-2.70;99.90
41592;DHT22;28026;48.562;14.440;2023-01-28T01:33:06;-2.80;99.90
41592;DHT22;28026;48.562;14.440;2023-01-28T01:35:36;-2.90;99.90
41592;DHT22;28026;48.562;14.440;2023-01-28T01:38:08;-3.00;99.90
41592;DHT22;28026;48.562;14.440;2023-01-28T01:40:38;-3.10;99.90
41592;DHT22;28026;48.562;14.440;2023-01-28T01:43:20;-2.90;99.90
41592;DHT22;28026;48.562;14.440;2023-01-28T01:45:55;-3.10;99.90
41592;DHT22;28026;48.562;14.440;2023-01-28T01:48:32;-3.10;99.90
41592;DHT22;28026;48.562;14.440;2023-01-28T01:51:13;-3.20;99.90
41592;DHT22;28026;48.562;14.440;2023-01-28T01:53:52;-3.30;99.90
41592;DHT22;28026;48.562;14.440;2023-01-28T01:56:31;-3.20;99.90
41592;DHT22;28026;48.562;14.440;2023-01-28T01:59:11;-3.20;99.90
41592;DHT22;28026;48.562;14.440;2023-01-28T02:01:48;-3.20;99.90
41592;DHT22;28026;48.562;14.440;2023-01-28T02:04:25;-3.20;99.90
41592;DHT22;28026;48.562;14.440;2023-01-28T02:07:00;-3.20;99.90
41592;DHT22;28026;48.562;14.440;2023-01-28T02:09:34;-3.20;99.90
41592;DHT22;28026;48.562;14.440;2023-01-28T02:12:19;-3.20;99.90
41592;DHT22;28026;48.562;14.440;2023-01-28T02:15:01;-3.30;99.90
41592;DHT22;28026;48.562;14.440;2023-01-28T02:17:36;-3.30;99.90
41592;DHT22;28026;48.562;14.440;2023-01-28T02:20:10;-3.30;99.90
41592;DHT22;28026;48.562;14.440;2023-01-28T02:23:10;-3.20;99.90
41592;DHT22;28026;48.562;14.440;2023-01-28T02:27:49;-3.30;99.90
41592;DHT22;28026;48.562;14.440;2023-01-28T02:30:28;-3.20;99.90
41592;DHT22;28026;48.562;14.440;2023-01-28T02:33:14;-3.20;99.90
41592;DHT22;28026;48.562;14.440;2023-01-28T02:36:01;-3.40;99.90
41592;DHT22;28026;48.562;14.440;2023-01-28T02:38:48;-3.40;99.90
41592;DHT22;28026;48.562;14.440;2023-01-28T02:41:33;-3.30;99.90
41592;DHT22;28026;48.562;14.440;2023-01-28T02:44:13;-3.30;99.90
41592;DHT22;28026;48.562;14.440;2023-01-28T02:46:44;-3.20;99.90
41592;DHT22;28026;48.562;14.440;2023-01-28T02:49:54;-3.20;99.90
41592;DHT22;28026;48.562;14.440;2023-01-28T02:56:22;-3.20;99.90
41592;DHT22;28026;48.562;14.440;2023-01-28T02:59:13;-3.30;99.90
41592;DHT22;28026;48.562;14.440;2023-01-28T03:05:30;-3.30;99.90
41592;DHT22;28026;48.562;14.440;2023-01-28T03:08:09;-3.30;99.90
41592;DHT22;28026;48.562;14.440;2023-01-28T03:11:00;-3.30;99.90
41592;DHT22;28026;48.562;14.440;2023-01-28T03:13:49;-3.20;99.90
41592;DHT22;28026;48.562;14.440;2023-01-28T03:16:39;-3.30;99.90
41592;DHT22;28026;48.562;14.440;2023-01-28T03:19:30;-3.20;99.90
41592;DHT22;28026;48.562;14.440;2023-01-28T03:22:21;-3.30;99.90
41592;DHT22;28026;48.562;14.440;2023-01-28T03:25:14;-3.20;99.90
41592;DHT22;28026;48.562;14.440;2023-01-28T03:28:15;-3.30;99.90
41592;DHT22;28026;48.562;14.440;2023-01-28T03:31:12;-3.30;99.90
41592;DHT22;28026;48.562;14.440;2023-01-28T03:34:07;-3.40;99.90
41592;DHT22;28026;48.562;14.440;2023-01-28T03:36:59;-3.50;99.90
41592;DHT22;28026;48.562;14.440;2023-01-28T03:39:31;-3.50;99.90
41592;DHT22;28026;48.562;14.440;2023-01-28T03:42:09;-3.50;99.90
41592;DHT22;28026;48.562;14.440;2023-01-28T03:44:43;-3.50;99.90
41592;DHT22;28026;48.562;14.440;2023-01-28T03:47:28;-3.40;99.90
41592;DHT22;28026;48.562;14.440;2023-01-28T03:50:01;-3.40;99.90
41592;DHT22;28026;48.562;14.440;2023-01-28T03:52:32;-3.40;99.90
41592;DHT22;28026;48.562;14.440;2023-01-28T03:55:04;-3.30;99.90
41592;DHT22;28026;48.562;14.440;2023-01-28T03:57:43;-3.40;99.90
41592;DHT22;28026;48.562;14.440;2023-01-28T04:00:14;-3.40;99.90
41592;DHT22;28026;48.562;14.440;2023-01-28T04:02:47;-3.30;99.90
41592;DHT22;28026;48.562;14.440;2023-01-28T04:05:18;-3.30;99.90
41592;DHT22;28026;48.562;14.440;2023-01-28T04:07:53;-3.40;99.90
41592;DHT22;28026;48.562;14.440;2023-01-28T04:10:25;-3.40;99.90
41592;DHT22;28026;48.562;14.440;2023-01-28T04:12:55;-3.40;99.90
41592;DHT22;28026;48.562;14.440;2023-01-28T04:15:26;-3.40;99.90
41592;DHT22;28026;48.562;14.440;2023-01-28T04:17:57;-3.40;99.90
41592;DHT22;28026;48.562;14.440;2023-01-28T04:20:30;-3.40;99.90
41592;DHT22;28026;48.562;14.440;2023-01-28T04:23:01;-3.40;99.90
41592;DHT22;28026;48.562;14.440;2023-01-28T04:25:33;-3.30;99.90
41592;DHT22;28026;48.562;14.440;2023-01-28T04:28:03;-3.20;99.90
41592;DHT22;28026;48.562;14.440;2023-01-28T04:30:34;-3.10;99.90
41592;DHT22;28026;48.562;14.440;2023-01-28T04:33:05;-3.10;99.90
41592;DHT22;28026;48.562;14.440;2023-01-28T04:35:36;-3.30;99.90
41592;DHT22;28026;48.562;14.440;2023-01-28T04:38:07;-3.20;99.90
41592;DHT22;28026;48.562;14.440;2023-01-28T04:40:38;-3.20;99.90
41592;DHT22;28026;48.562;14.440;2023-01-28T04:43:09;-3.40;99.90
41592;DHT22;28026;48.562;14.440;2023-01-28T04:45:40;-3.30;99.90
41592;DHT22;28026;48.562;14.440;2023-01-28T04:48:10;-3.20;99.90
41592;DHT22;28026;48.562;14.440;2023-01-28T04:50:42;-3.30;99.90
41592;DHT22;28026;48.562;14.440;2023-01-28T04:53:15;-3.10;99.90
41592;DHT22;28026;48.562;14.440;2023-01-28T04:55:45;-3.00;99.90
41592;DHT22;28026;48.562;14.440;2023-01-28T04:58:16;-3.00;99.90
41592;DHT22;28026;48.562;14.440;2023-01-28T05:00:55;-3.20;99.90
41592;DHT22;28026;48.562;14.440;2023-01-28T05:03:27;-3.30;99.90
41592;DHT22;28026;48.562;14.440;2023-01-28T05:05:58;-3.20;99.90
41592;DHT22;28026;48.562;14.440;2023-01-28T05:08:29;-3.20;99.90
41592;DHT22;28026;48.562;14.440;2023-01-28T05:11:00;-3.20;99.90
41592;DHT22;28026;48.562;14.440;2023-01-28T05:13:31;-3.20;99.90
41592;DHT22;28026;48.562;14.440;2023-01-28T05:16:02;-3.30;99.90
41592;DHT22;28026;48.562;14.440;2023-01-28T05:18:33;-3.20;99.90
41592;DHT22;28026;48.562;14.440;2023-01-28T05:21:04;-3.30;99.90
41592;DHT22;28026;48.562;14.440;2023-01-28T05:23:35;-3.40;99.90
41592;DHT22;28026;48.562;14.440;2023-01-28T05:26:06;-3.40;99.90
41592;DHT22;28026;48.562;14.440;2023-01-28T05:28:36;-3.30;99.90
41592;DHT22;28026;48.562;14.440;2023-01-28T05:31:09;-3.20;99.90
41592;DHT22;28026;48.562;14.440;2023-01-28T05:33:41;-3.10;99.90
41592;DHT22;28026;48.562;14.440;2023-01-28T05:36:11;-3.00;99.90
41592;DHT22;28026;48.562;14.440;2023-01-28T05:38:42;-3.00;99.90
41592;DHT22;28026;48.562;14.440;2023-01-28T05:41:13;-3.00;99.90
41592;DHT22;28026;48.562;14.440;2023-01-28T05:43:44;-3.00;99.90
41592;DHT22;28026;48.562;14.440;2023-01-28T05:46:15;-3.00;99.90
41592;DHT22;28026;48.562;14.440;2023-01-28T05:48:46;-3.00;99.90
41592;DHT22;28026;48.562;14.440;2023-01-28T05:51:17;-2.90;99.90
41592;DHT22;28026;48.562;14.440;2023-01-28T05:53:48;-2.90;99.90
41592;DHT22;28026;48.562;14.440;2023-01-28T05:56:19;-2.80;99.90
41592;DHT22;28026;48.562;14.440;2023-01-28T05:58:50;-2.80;99.90
41592;DHT22;28026;48.562;14.440;2023-01-28T06:01:20;-2.70;99.90
41592;DHT22;28026;48.562;14.440;2023-01-28T06:03:51;-2.70;99.90
41592;DHT22;28026;48.562;14.440;2023-01-28T06:06:22;-2.60;99.90
41592;DHT22;28026;48.562;14.440;2023-01-28T06:08:53;-2.60;99.90
41592;DHT22;28026;48.562;14.440;2023-01-28T06:11:24;-2.70;99.90
41592;DHT22;28026;48.562;14.440;2023-01-28T06:13:55;-2.60;99.90
41592;DHT22;28026;48.562;14.440;2023-01-28T06:16:26;-2.50;99.90
41592;DHT22;28026;48.562;14.440;2023-01-28T06:18:57;-2.50;99.90
41592;DHT22;28026;48.562;14.440;2023-01-28T06:21:28;-2.50;99.90
41592;DHT22;28026;48.562;14.440;2023-01-28T06:23:59;-2.50;99.90
41592;DHT22;28026;48.562;14.440;2023-01-28T06:26:29;-2.50;99.90
41592;DHT22;28026;48.562;14.440;2023-01-28T06:29:00;-2.70;99.90
41592;DHT22;28026;48.562;14.440;2023-01-28T06:31:31;-2.70;99.90
41592;DHT22;28026;48.562;14.440;2023-01-28T06:34:02;-2.80;99.90
41592;DHT22;28026;48.562;14.440;2023-01-28T06:36:34;-2.70;99.90
41592;DHT22;28026;48.562;14.440;2023-01-28T06:39:07;-2.70;99.90
41592;DHT22;28026;48.562;14.440;2023-01-28T06:41:38;-2.80;99.90
41592;DHT22;28026;48.562;14.440;2023-01-28T06:44:09;-2.90;99.90
41592;DHT22;28026;48.562;14.440;2023-01-28T06:46:40;-2.90;99.90
41592;DHT22;28026;48.562;14.440;2023-01-28T06:49:12;-3.00;99.90
41592;DHT22;28026;48.562;14.440;2023-01-28T06:51:43;-3.10;99.90
41592;DHT22;28026;48.562;14.440;2023-01-28T06:54:14;-3.00;99.90
41592;DHT22;28026;48.562;14.440;2023-01-28T06:56:45;-2.90;99.90
41592;DHT22;28026;48.562;14.440;2023-01-28T06:59:16;-2.90;99.90
41592;DHT22;28026;48.562;14.440;2023-01-28T07:01:47;-3.00;99.90
41592;DHT22;28026;48.562;14.440;2023-01-28T07:04:17;-2.90;99.90
41592;DHT22;28026;48.562;14.440;2023-01-28T07:06:48;-2.80;99.90
41592;DHT22;28026;48.562;14.440;2023-01-28T07:09:19;-2.80;99.90
41592;DHT22;28026;48.562;14.440;2023-01-28T07:11:50;-2.70;99.90
41592;DHT22;28026;48.562;14.440;2023-01-28T07:14:21;-2.70;99.90
41592;DHT22;28026;48.562;14.440;2023-01-28T07:16:52;-2.80;99.90
41592;DHT22;28026;48.562;14.440;2023-01-28T07:19:23;-2.70;99.90
41592;DHT22;28026;48.562;14.440;2023-01-28T07:21:54;-2.60;99.90
41592;DHT22;28026;48.562;14.440;2023-01-28T07:24:28;-2.60;99.90
41592;DHT22;28026;48.562;14.440;2023-01-28T07:27:00;-2.70;99.90
41592;DHT22;28026;48.562;14.440;2023-01-28T07:29:32;-2.60;99.90
41592;DHT22;28026;48.562;14.440;2023-01-28T07:32:03;-2.40;99.90
41592;DHT22;28026;48.562;14.440;2023-01-28T07:34:36;-2.30;99.90
41592;DHT22;28026;48.562;14.440;2023-01-28T07:37:09;-2.20;99.90
41592;DHT22;28026;48.562;14.440;2023-01-28T07:39:40;-2.10;99.90
41592;DHT22;28026;48.562;14.440;2023-01-28T07:42:11;-2.10;99.90
41592;DHT22;28026;48.562;14.440;2023-01-28T07:44:42;-2.10;99.90
41592;DHT22;28026;48.562;14.440;2023-01-28T07:47:13;-2.00;99.90
41592;DHT22;28026;48.562;14.440;2023-01-28T07:49:44;-1.90;99.90
41592;DHT22;28026;48.562;14.440;2023-01-28T07:52:15;-2.00;99.90
41592;DHT22;28026;48.562;14.440;2023-01-28T07:54:46;-1.90;99.90
41592;DHT22;28026;48.562;14.440;2023-01-28T07:57:16;-2.00;99.90
41592;DHT22;28026;48.562;14.440;2023-01-28T07:59:52;-1.90;99.90
41592;DHT22;28026;48.562;14.440;2023-01-28T08:02:23;-1.80;99.90
41592;DHT22;28026;48.562;14.440;2023-01-28T08:04:54;-1.80;99.90
41592;DHT22;28026;48.562;14.440;2023-01-28T08:07:28;-1.80;99.90
41592;DHT22;28026;48.562;14.440;2023-01-28T08:09:59;-1.80;99.90
41592;DHT22;28026;48.562;14.440;2023-01-28T08:12:30;-1.90;99.90
41592;DHT22;28026;48.562;14.440;2023-01-28T08:15:01;-1.70;99.90
41592;DHT22;28026;48.562;14.440;2023-01-28T08:17:32;-1.80;99.90
41592;DHT22;28026;48.562;14.440;2023-01-28T08:20:03;-1.80;99.90
41592;DHT22;28026;48.562;14.440;2023-01-28T08:22:35;-1.70;99.90
41592;DHT22;28026;48.562;14.440;2023-01-28T08:25:06;-1.70;99.90
41592;DHT22;28026;48.562;14.440;2023-01-28T08:27:37;-1.70;99.90
41592;DHT22;28026;48.562;14.440;2023-01-28T08:30:09;-1.70;99.90
41592;DHT22;28026;48.562;14.440;2023-01-28T08:32:41;-1.70;99.90
41592;DHT22;28026;48.562;14.440;2023-01-28T08:35:12;-1.60;99.90
41592;DHT22;28026;48.562;14.440;2023-01-28T08:37:42;-1.60;99.90
41592;DHT22;28026;48.562;14.440;2023-01-28T08:40:13;-1.60;99.90
41592;DHT22;28026;48.562;14.440;2023-01-28T08:42:48;-1.70;99.90
41592;DHT22;28026;48.562;14.440;2023-01-28T08:45:22;-1.70;99.90
41592;DHT22;28026;48.562;14.440;2023-01-28T08:47:58;-1.60;99.90
41592;DHT22;28026;48.562;14.440;2023-01-28T08:50:36;-1.50;99.90
41592;DHT22;28026;48.562;14.440;2023-01-28T08:53:17;-1.50;99.90
41592;DHT22;28026;48.562;14.440;2023-01-28T08:55:49;-1.40;99.90
41592;DHT22;28026;48.562;14.440;2023-01-28T08:58:20;-1.40;99.90
41592;DHT22;28026;48.562;14.440;2023-01-28T09:00:51;-1.40;99.90
41592;DHT22;28026;48.562;14.440;2023-01-28T09:03:22;-1.30;99.90
41592;DHT22;28026;48.562;14.440;2023-01-28T09:05:53;-1.10;99.90
41592;DHT22;28026;48.562;14.440;2023-01-28T09:08:33;-1.10;99.90
41592;DHT22;28026;48.562;14.440;2023-01-28T09:11:04;-1.10;99.90
41592;DHT22;28026;48.562;14.440;2023-01-28T09:13:35;-1.20;99.90
41592;DHT22;28026;48.562;14.440;2023-01-28T09:16:06;-1.10;99.90
41592;DHT22;28026;48.562;14.440;2023-01-28T09:18:38;-1.20;99.90
41592;DHT22;28026;48.562;14.440;2023-01-28T09:21:09;-1.30;99.90
41592;DHT22;28026;48.562;14.440;2023-01-28T09:23:40;-1.40;99.90
41592;DHT22;28026;48.562;14.440;2023-01-28T09:26:11;-1.30;99.90
41592;DHT22;28026;48.562;14.440;2023-01-28T09:28:42;-1.30;99.90
41592;DHT22;28026;48.562;14.440;2023-01-28T09:31:13;-1.20;99.90
41592;DHT22;28026;48.562;14.440;2023-01-28T09:33:45;-1.20;99.90
41592;DHT22;28026;48.562;14.440;2023-01-28T09:36:17;-1.10;99.90
41592;DHT22;28026;48.562;14.440;2023-01-28T09:38:48;-0.90;99.90
41592;DHT22;28026;48.562;14.440;2023-01-28T09:41:52;-0.90;99.90
41592;DHT22;28026;48.562;14.440;2023-01-28T09:45:00;-1.00;99.90
41592;DHT22;28026;48.562;14.440;2023-01-28T09:47:59;-1.20;99.90
41592;DHT22;28026;48.562;14.440;2023-01-28T09:50:37;-1.10;99.90
41592;DHT22;28026;48.562;14.440;2023-01-28T09:55:56;-1.10;99.90
41592;DHT22;28026;48.562;14.440;2023-01-28T09:58:34;-1.10;99.90
41592;DHT22;28026;48.562;14.440;2023-01-28T10:01:52;-1.20;99.90
41592;DHT22;28026;48.562;14.440;2023-01-28T10:07:14;-1.20;99.90
41592;DHT22;28026;48.562;14.440;2023-01-28T10:10:16;-1.20;99.90
41592;DHT22;28026;48.562;14.440;2023-01-28T10:20:07;-1.20;99.90
41592;DHT22;28026;48.562;14.440;2023-01-28T10:23:00;-1.20;99.90
41592;DHT22;28026;48.562;14.440;2023-01-28T10:25:45;-1.10;99.90
41592;DHT22;28026;48.562;14.440;2023-01-28T10:28:21;-1.20;99.90
41592;DHT22;28026;48.562;14.440;2023-01-28T10:30:57;-1.20;99.90
41592;DHT22;28026;48.562;14.440;2023-01-28T10:33:34;-1.10;99.90
41592;DHT22;28026;48.562;14.440;2023-01-28T10:36:09;-1.00;99.90
41592;DHT22;28026;48.562;14.440;2023-01-28T10:38:40;-1.10;99.90
41592;DHT22;28026;48.562;14.440;2023-01-28T10:41:12;-1.00;99.90
41592;DHT22;28026;48.562;14.440;2023-01-28T10:43:50;-1.00;99.90
41592;DHT22;28026;48.562;14.440;2023-01-28T10:46:32;-1.00;99.90
41592;DHT22;28026;48.562;14.440;2023-01-28T10:51:53;-0.80;99.90
41592;DHT22;28026;48.562;14.440;2023-01-28T10:54:27;-0.70;99.90
41592;DHT22;28026;48.562;14.440;2023-01-28T10:57:01;-1.00;99.90
41592;DHT22;28026;48.562;14.440;2023-01-28T10:59:38;-1.00;99.90
41592;DHT22;28026;48.562;14.440;2023-01-28T11:05:14;-0.90;99.90
41592;DHT22;28026;48.562;14.440;2023-01-28T11:08:03;-0.70;99.90
41592;DHT22;28026;48.562;14.440;2023-01-28T11:10:46;-0.70;99.90
41592;DHT22;28026;48.562;14.440;2023-01-28T11:13:29;-0.80;99.90
41592;DHT22;28026;48.562;14.440;2023-01-28T11:16:03;-0.70;99.90
41592;DHT22;28026;48.562;14.440;2023-01-28T11:18:48;-0.70;99.90
41592;DHT22;28026;48.562;14.440;2023-01-28T11:21:26;-0.80;99.90
41592;DHT22;28026;48.562;14.440;2023-01-28T11:24:06;-0.70;99.90
41592;DHT22;28026;48.562;14.440;2023-01-28T11:26:54;-0.80;99.90
41592;DHT22;28026;48.562;14.440;2023-01-28T11:29:31;-0.90;99.90
41592;DHT22;28026;48.562;14.440;2023-01-28T11:32:18;-0.90;99.90
41592;DHT22;28026;48.562;14.440;2023-01-28T11:34:55;-0.70;99.90
41592;DHT22;28026;48.562;14.440;2023-01-28T11:37:27;-0.90;99.90
41592;DHT22;28026;48.562;14.440;2023-01-28T11:40:01;-0.80;99.90
41592;DHT22;28026;48.562;14.440;2023-01-28T11:42:46;-0.90;99.90
41592;DHT22;28026;48.562;14.440;2023-01-28T11:45:30;-0.90;99.90
41592;DHT22;28026;48.562;14.440;2023-01-28T11:55:34;-0.70;99.90
41592;DHT22;28026;48.562;14.440;2023-01-28T11:58:36;-0.70;99.90
41592;DHT22;28026;48.562;14.440;2023-01-28T12:01:55;-0.60;99.90
41592;DHT22;28026;48.562;14.440;2023-01-28T12:24:45;-0.50;99.90
41592;DHT22;28026;48.562;14.440;2023-01-28T12:35:13;-0.50;99.90
41592;DHT22;28026;48.562;14.440;2023-01-28T12:38:05;-0.70;99.90
41592;DHT22;28026;48.562;14.440;2023-01-28T12:40:52;-0.70;99.90
41592;DHT22;28026;48.562;14.440;2023-01-28T12:46:55;-0.60;99.90
41592;DHT22;28026;48.562;14.440;2023-01-28T12:49:41;-0.50;99.90
41592;DHT22;28026;48.562;14.440;2023-01-28T12:52:20;-0.40;99.90
41592;DHT22;28026;48.562;14.440;2023-01-28T12:58:20;-0.60;99.90
41592;DHT22;28026;48.562;14.440;2023-01-28T13:01:29;-0.60;99.90
41592;DHT22;28026;48.562;14.440;2023-01-28T13:04:17;-0.70;99.90
41592;DHT22;28026;48.562;14.440;2023-01-28T13:07:13;-0.90;99.90
41592;DHT22;28026;48.562;14.440;2023-01-28T13:10:16;-0.70;99.90
41592;DHT22;28026;48.562;14.440;2023-01-28T13:12:56;-0.70;99.90
41592;DHT22;28026;48.562;14.440;2023-01-28T13:15:29;-0.70;99.90
41592;DHT22;28026;48.562;14.440;2023-01-28T13:18:04;-0.50;99.90
41592;DHT22;28026;48.562;14.440;2023-01-28T13:20:44;-0.50;99.90
41592;DHT22;28026;48.562;14.440;2023-01-28T13:23:36;-0.40;99.90
41592;DHT22;28026;48.562;14.440;2023-01-28T13:28:50;-0.30;99.90
41592;DHT22;28026;48.562;14.440;2023-01-28T13:31:23;-0.20;99.90
41592;DHT22;28026;48.562;14.440;2023-01-28T13:36:43;-0.50;99.90
41592;DHT22;28026;48.562;14.440;2023-01-28T13:39:19;-0.50;99.90
41592;DHT22;28026;48.562;14.440;2023-01-28T13:42:07;-0.40;99.90
41592;DHT22;28026;48.562;14.440;2023-01-28T13:44:49;-0.40;99.90
41592;DHT22;28026;48.562;14.440;2023-01-28T13:47:32;-0.40;99.90
41592;DHT22;28026;48.562;14.440;2023-01-28T13:50:15;-0.50;99.90
41592;DHT22;28026;48.562;14.440;2023-01-28T14:18:52;-0.60;99.90
41592;DHT22;28026;48.562;14.440;2023-01-28T14:21:33;-0.60;99.90
41592;DHT22;28026;48.562;14.440;2023-01-28T14:24:13;-0.70;99.90
41592;DHT22;28026;48.562;14.440;2023-01-28T14:30:51;-0.90;99.90
41592;DHT22;28026;48.562;14.440;2023-01-28T14:33:30;-1.00;99.90
41592;DHT22;28026;48.562;14.440;2023-01-28T14:36:02;-1.00;99.90
41592;DHT22;28026;48.562;14.440;2023-01-28T14:38:38;-0.90;99.90
41592;DHT22;28026;48.562;14.440;2023-01-28T14:41:22;-0.90;99.90
41592;DHT22;28026;48.562;14.440;2023-01-28T14:43:57;-1.00;99.90
41592;DHT22;28026;48.562;14.440;2023-01-28T14:46:48;-1.00;99.90
41592;DHT22;28026;48.562;14.440;2023-01-28T14:50:21;-1.10;99.90
41592;DHT22;28026;48.562;14.440;2023-01-28T15:02:23;-1.20;99.90
41592;DHT22;28026;48.562;14.440;2023-01-28T15:05:08;-1.40;99.90
41592;DHT22;28026;48.562;14.440;2023-01-28T15:07:46;-1.20;99.90
41592;DHT22;28026;48.562;14.440;2023-01-28T15:10:37;-1.20;99.90
41592;DHT22;28026;48.562;14.440;2023-01-28T15:13:25;-1.30;99.90
41592;DHT22;28026;48.562;14.440;2023-01-28T15:16:01;-1.20;99.90
41592;DHT22;28026;48.562;14.440;2023-01-28T15:18:35;-1.20;99.90
41592;DHT22;28026;48.562;14.440;2023-01-28T15:21:12;-1.20;99.90
41592;DHT22;28026;48.562;14.440;2023-01-28T15:23:54;-1.30;99.90
41592;DHT22;28026;48.562;14.440;2023-01-28T15:26:32;-1.20;99.90
41592;DHT22;28026;48.562;14.440;2023-01-28T15:29:04;-1.40;99.90
41592;DHT22;28026;48.562;14.440;2023-01-28T15:31:35;-1.40;99.90
41592;DHT22;28026;48.562;14.440;2023-01-28T15:34:14;-1.40;99.90
41592;DHT22;28026;48.562;14.440;2023-01-28T15:36:48;-1.40;99.90
41592;DHT22;28026;48.562;14.440;2023-01-28T15:39:21;-1.50;99.90
41592;DHT22;28026;48.562;14.440;2023-01-28T15:42:03;-1.50;99.90
41592;DHT22;28026;48.562;14.440;2023-01-28T15:44:46;-1.60;99.90
41592;DHT22;28026;48.562;14.440;2023-01-28T15:47:25;-1.60;99.90
41592;DHT22;28026;48.562;14.440;2023-01-28T15:50:05;-1.60;99.90
41592;DHT22;28026;48.562;14.440;2023-01-28T15:52:40;-1.40;99.90
41592;DHT22;28026;48.562;14.440;2023-01-28T15:55:53;-1.40;99.90
41592;DHT22;28026;48.562;14.440;2023-01-28T15:58:36;-1.40;99.90
41592;DHT22;28026;48.562;14.440;2023-01-28T16:01:15;-1.40;99.90
41592;DHT22;28026;48.562;14.440;2023-01-28T16:04:03;-1.40;99.90
41592;DHT22;28026;48.562;14.440;2023-01-28T16:06:38;-1.40;99.90
41592;DHT22;28026;48.562;14.440;2023-01-28T16:09:28;-1.40;99.90
41592;DHT22;28026;48.562;14.440;2023-01-28T16:12:08;-1.40;99.90
41592;DHT22;28026;48.562;14.440;2023-01-28T16:14:48;-1.50;99.90
41592;DHT22;28026;48.562;14.440;2023-01-28T16:17:28;-1.50;99.90
41592;DHT22;28026;48.562;14.440;2023-01-28T16:20:29;-1.60;99.90
41592;DHT22;28026;48.562;14.440;2023-01-28T16:23:19;-1.60;99.90
41592;DHT22;28026;48.562;14.440;2023-01-28T16:26:02;-1.50;99.90
41592;DHT22;28026;48.562;14.440;2023-01-28T16:28:36;-1.50;99.90
41592;DHT22;28026;48.562;14.440;2023-01-28T16:31:09;-1.50;99.90
41592;DHT22;28026;48.562;14.440;2023-01-28T16:33:41;-1.50;99.90
41592;DHT22;28026;48.562;14.440;2023-01-28T16:36:13;-1.50;99.90
41592;DHT22;28026;48.562;14.440;2023-01-28T16:38:48;-1.50;99.90
41592;DHT22;28026;48.562;14.440;2023-01-28T16:41:24;-1.50;99.90
41592;DHT22;28026;48.562;14.440;2023-01-28T16:43:59;-1.50;99.90
41592;DHT22;28026;48.562;14.440;2023-01-28T16:46:34;-1.60;99.90
41592;DHT22;28026;48.562;14.440;2023-01-28T16:49:05;-1.60;99.90
41592;DHT22;28026;48.562;14.440;2023-01-28T16:51:38;-1.50;99.90
41592;DHT22;28026;48.562;14.440;2023-01-28T16:54:14;-1.60;99.90
41592;DHT22;28026;48.562;14.440;2023-01-28T16:56:46;-1.60;99.90
41592;DHT22;28026;48.562;14.440;2023-01-28T17:14:02;-1.70;99.90
41592;DHT22;28026;48.562;14.440;2023-01-28T17:16:33;-1.60;99.90
41592;DHT22;28026;48.562;14.440;2023-01-28T17:19:04;-1.60;99.90
41592;DHT22;28026;48.562;14.440;2023-01-28T17:21:35;-1.70;99.90
41592;DHT22;28026;48.562;14.440;2023-01-28T17:24:06;-1.70;99.90
41592;DHT22;28026;48.562;14.440;2023-01-28T17:26:38;-1.60;99.90
41592;DHT22;28026;48.562;14.440;2023-01-28T17:29:08;-1.70;99.90
41592;DHT22;28026;48.562;14.440;2023-01-28T17:31:39;-1.70;99.90
41592;DHT22;28026;48.562;14.440;2023-01-28T17:34:10;-1.80;99.90
41592;DHT22;28026;48.562;14.440;2023-01-28T17:36:41;-1.80;99.90
41592;DHT22;28026;48.562;14.440;2023-01-28T17:39:12;-1.70;99.90
41592;DHT22;28026;48.562;14.440;2023-01-28T17:41:43;-1.70;99.90
41592;DHT22;28026;48.562;14.440;2023-01-28T17:44:14;-1.80;99.90
41592;DHT22;28026;48.562;14.440;2023-01-28T17:46:45;-1.80;99.90
41592;DHT22;28026;48.562;14.440;2023-01-28T17:49:16;-1.90;99.90
41592;DHT22;28026;48.562;14.440;2023-01-28T17:51:47;-1.90;99.90
41592;DHT22;28026;48.562;14.440;2023-01-28T17:54:18;-1.90;99.90
41592;DHT22;28026;48.562;14.440;2023-01-28T17:56:49;-2.00;99.90
41592;DHT22;28026;48.562;14.440;2023-01-28T17:59:20;-2.00;99.90
41592;DHT22;28026;48.562;14.440;2023-01-28T18:01:51;-2.00;99.90
41592;DHT22;28026;48.562;14.440;2023-01-28T18:04:24;-2.00;99.90
41592;DHT22;28026;48.562;14.440;2023-01-28T18:06:54;-1.90;99.90
41592;DHT22;28026;48.562;14.440;2023-01-28T18:09:25;-2.00;99.90
41592;DHT22;28026;48.562;14.440;2023-01-28T18:11:56;-1.80;99.90
41592;DHT22;28026;48.562;14.440;2023-01-28T18:14:27;-1.80;99.90
41592;DHT22;28026;48.562;14.440;2023-01-28T18:16:58;-1.80;99.90
41592;DHT22;28026;48.562;14.440;2023-01-28T18:19:29;-1.90;99.90
41592;DHT22;28026;48.562;14.440;2023-01-28T18:22:00;-1.90;99.90